sensor_id;sensor_type;location;lat;lon;timestamp;temperature;humidity
45044;DHT22;30784;48.490;9.688;2022-09-09T00:02:32;17.50;48.00
45044;DHT22;30784;48.490;9.688;2022-09-09T00:04:39;17.50;48.00
45044;DHT22;30784;48.490;9.688;2022-09-09T00:07:24;17.50;48.00
45044;DHT22;30784;48.490;9.688;2022-09-09T00:15:11;17.40;48.10
45044;DHT22;30784;48.490;9.688;2022-09-09T00:17:43;17.50;48.10
45044;DHT22;30784;48.490;9.688;2022-09-09T00:20:29;17.50;48.10
45044;DHT22;30784;48.490;9.688;2022-09-09T00:25:43;17.50;48.00
45044;DHT22;30784;48.490;9.688;2022-09-09T00:28:19;17.50;48.10
45044;DHT22;30784;48.490;9.688;2022-09-09T00:30:45;17.50;48.20
45044;DHT22;30784;48.490;9.688;2022-09-09T00:33:15;17.50;48.20
45044;DHT22;30784;48.490;9.688;2022-09-09T00:35:47;17.50;48.30
45044;DHT22;30784;48.490;9.688;2022-09-09T00:38:37;17.50;48.40
45044;DHT22;30784;48.490;9.688;2022-09-09T00:43:56;17.40;48.50
45044;DHT22;30784;48.490;9.688;2022-09-09T00:46:45;17.40;48.40
45044;DHT22;30784;48.490;9.688;2022-09-09T00:57:32;17.30;48.40
45044;DHT22;30784;48.490;9.688;2022-09-09T01:05:33;17.20;48.90
45044;DHT22;30784;48.490;9.688;2022-09-09T01:08:04;17.20;48.70
45044;DHT22;30784;48.490;9.688;2022-09-09T01:10:36;17.20;48.90
45044;DHT22;30784;48.490;9.688;2022-09-09T01:13:14;17.20;49.20
45044;DHT22;30784;48.490;9.688;2022-09-09T01:15:43;17.20;49.00
45044;DHT22;30784;48.490;9.688;2022-09-09T01:18:12;17.20;49.10
45044;DHT22;30784;48.490;9.688;2022-09-09T01:21:04;17.20;49.20
45044;DHT22;30784;48.490;9.688;2022-09-09T01:28:50;17.20;49.30
45044;DHT22;30784;48.490;9.688;2022-09-09T01:31:38;17.20;49.40
45044;DHT22;30784;48.490;9.688;2022-09-09T01:34:14;17.20;49.00
45044;DHT22;30784;48.490;9.688;2022-09-09T01:37:27;17.30;49.30
45044;DHT22;30784;48.490;9.688;2022-09-09T01:39:35;17.30;49.50
45044;DHT22;30784;48.490;9.688;2022-09-09T01:42:01;17.30;49.40
45044;DHT22;30784;48.490;9.688;2022-09-09T01:44:28;17.30;49.40
45044;DHT22;30784;48.490;9.688;2022-09-09T01:46:55;17.30;49.50
45044;DHT22;30784;48.490;9.688;2022-09-09T01:49:20;17.30;49.50
45044;DHT22;30784;48.490;9.688;2022-09-09T01:51:51;17.30;49.50
45044;DHT22;30784;48.490;9.688;2022-09-09T01:54:18;17.30;49.50
45044;DHT22;30784;48.490;9.688;2022-09-09T01:57:11;17.30;49.60
45044;DHT22;30784;48.490;9.688;2022-09-09T02:02:34;17.40;49.30
45044;DHT22;30784;48.490;9.688;2022-09-09T02:05:45;17.40;49.50
45044;DHT22;30784;48.490;9.688;2022-09-09T02:08:20;17.40;49.20
45044;DHT22;30784;48.490;9.688;2022-09-09T02:10:56;17.40;49.40
45044;DHT22;30784;48.490;9.688;2022-09-09T02:13:25;17.40;49.50
45044;DHT22;30784;48.490;9.688;2022-09-09T02:19:32;17.40;49.30
45044;DHT22;30784;48.490;9.688;2022-09-09T02:21:59;17.40;49.40
45044;DHT22;30784;48.490;9.688;2022-09-09T02:24:28;17.40;49.70
45044;DHT22;30784;48.490;9.688;2022-09-09T02:26:56;17.40;49.70
45044;DHT22;30784;48.490;9.688;2022-09-09T02:29:31;17.40;49.70
45044;DHT22;30784;48.490;9.688;2022-09-09T02:32:02;17.40;49.70
45044;DHT22;30784;48.490;9.688;2022-09-09T02:34:31;17.40;49.80
45044;DHT22;30784;48.490;9.688;2022-09-09T02:37:01;17.50;50.10
45044;DHT22;30784;48.490;9.688;2022-09-09T02:39:28;17.40;49.90
45044;DHT22;30784;48.490;9.688;2022-09-09T02:41:54;17.40;49.90
45044;DHT22;30784;48.490;9.688;2022-09-09T02:44:19;17.40;50.10
45044;DHT22;30784;48.490;9.688;2022-09-09T02:50:11;17.40;49.80
45044;DHT22;30784;48.490;9.688;2022-09-09T02:55:46;17.40;50.00
45044;DHT22;30784;48.490;9.688;2022-09-09T02:58:16;17.40;50.10
45044;DHT22;30784;48.490;9.688;2022-09-09T03:00:47;17.40;50.30
45044;DHT22;30784;48.490;9.688;2022-09-09T03:03:13;17.40;50.50
45044;DHT22;30784;48.490;9.688;2022-09-09T03:05:39;17.40;50.60
45044;DHT22;30784;48.490;9.688;2022-09-09T03:08:06;17.40;50.60
45044;DHT22;30784;48.490;9.688;2022-09-09T03:10:32;17.40;50.70
45044;DHT22;30784;48.490;9.688;2022-09-09T03:12:58;17.40;50.70
45044;DHT22;30784;48.490;9.688;2022-09-09T03:15:24;17.40;50.80
45044;DHT22;30784;48.490;9.688;2022-09-09T03:17:54;17.40;50.70
45044;DHT22;30784;48.490;9.688;2022-09-09T03:20:20;17.40;50.60
45044;DHT22;30784;48.490;9.688;2022-09-09T03:22:46;17.40;50.80
45044;DHT22;30784;48.490;9.688;2022-09-09T03:25:12;17.40;51.00
45044;DHT22;30784;48.490;9.688;2022-09-09T03:27:37;17.40;51.00
45044;DHT22;30784;48.490;9.688;2022-09-09T03:30:03;17.50;51.20
45044;DHT22;30784;48.490;9.688;2022-09-09T03:32:29;17.50;51.30
45044;DHT22;30784;48.490;9.688;2022-09-09T03:34:56;17.50;51.50
45044;DHT22;30784;48.490;9.688;2022-09-09T03:37:22;17.50;51.40
45044;DHT22;30784;48.490;9.688;2022-09-09T03:39:48;17.50;52.00
45044;DHT22;30784;48.490;9.688;2022-09-09T03:42:14;17.50;51.50
45044;DHT22;30784;48.490;9.688;2022-09-09T03:44:43;17.50;51.50
45044;DHT22;30784;48.490;9.688;2022-09-09T03:47:09;17.50;51.60
45044;DHT22;30784;48.490;9.688;2022-09-09T03:49:34;17.60;51.70
45044;DHT22;30784;48.490;9.688;2022-09-09T03:52:00;17.60;52.00
45044;DHT22;30784;48.490;9.688;2022-09-09T03:54:26;17.50;52.00
45044;DHT22;30784;48.490;9.688;2022-09-09T03:56:52;17.60;52.20
45044;DHT22;30784;48.490;9.688;2022-09-09T03:59:18;17.60;52.50
45044;DHT22;30784;48.490;9.688;2022-09-09T04:01:43;17.60;53.20
45044;DHT22;30784;48.490;9.688;2022-09-09T04:04:10;17.70;52.90
45044;DHT22;30784;48.490;9.688;2022-09-09T04:06:37;17.70;52.90
45044;DHT22;30784;48.490;9.688;2022-09-09T04:09:03;17.70;53.00
45044;DHT22;30784;48.490;9.688;2022-09-09T04:11:29;17.70;53.10
45044;DHT22;30784;48.490;9.688;2022-09-09T04:13:54;17.70;53.20
45044;DHT22;30784;48.490;9.688;2022-09-09T04:16:20;17.70;53.40
45044;DHT22;30784;48.490;9.688;2022-09-09T04:18:45;17.70;53.70
45044;DHT22;30784;48.490;9.688;2022-09-09T04:21:11;17.70;53.90
45044;DHT22;30784;48.490;9.688;2022-09-09T04:23:38;17.80;53.80
45044;DHT22;30784;48.490;9.688;2022-09-09T04:26:04;17.80;53.80
45044;DHT22;30784;48.490;9.688;2022-09-09T04:28:33;17.80;54.00
45044;DHT22;30784;48.490;9.688;2022-09-09T04:31:07;17.80;54.20
45044;DHT22;30784;48.490;9.688;2022-09-09T04:33:33;17.80;53.90
45044;DHT22;30784;48.490;9.688;2022-09-09T04:35:58;17.80;54.40
45044;DHT22;30784;48.490;9.688;2022-09-09T04:38:24;17.80;54.40
45044;DHT22;30784;48.490;9.688;2022-09-09T04:40:51;17.80;54.40
45044;DHT22;30784;48.490;9.688;2022-09-09T04:43:20;17.80;54.40
45044;DHT22;30784;48.490;9.688;2022-09-09T04:45:50;17.70;54.50
45044;DHT22;30784;48.490;9.688;2022-09-09T04:48:20;17.70;54.30
45044;DHT22;30784;48.490;9.688;2022-09-09T04:50:59;17.80;54.60
45044;DHT22;30784;48.490;9.688;2022-09-09T04:53:25;17.70;54.40
45044;DHT22;30784;48.490;9.688;2022-09-09T04:56:02;17.70;55.10
45044;DHT22;30784;48.490;9.688;2022-09-09T04:58:28;17.70;54.80
45044;DHT22;30784;48.490;9.688;2022-09-09T05:00:54;17.70;55.00
45044;DHT22;30784;48.490;9.688;2022-09-09T05:03:19;17.60;55.20
45044;DHT22;30784;48.490;9.688;2022-09-09T05:05:45;17.70;55.20
45044;DHT22;30784;48.490;9.688;2022-09-09T05:08:11;17.60;55.00
45044;DHT22;30784;48.490;9.688;2022-09-09T05:10:38;17.60;55.20
45044;DHT22;30784;48.490;9.688;2022-09-09T05:13:04;17.60;55.50
45044;DHT22;30784;48.490;9.688;2022-09-09T05:15:30;17.60;55.50
45044;DHT22;30784;48.490;9.688;2022-09-09T05:17:59;17.60;55.70
45044;DHT22;30784;48.490;9.688;2022-09-09T05:20:25;17.60;55.70
45044;DHT22;30784;48.490;9.688;2022-09-09T05:22:55;17.60;55.70
45044;DHT22;30784;48.490;9.688;2022-09-09T05:25:22;17.60;55.80
45044;DHT22;30784;48.490;9.688;2022-09-09T05:27:49;17.60;56.00
45044;DHT22;30784;48.490;9.688;2022-09-09T05:30:15;17.60;56.20
45044;DHT22;30784;48.490;9.688;2022-09-09T05:32:42;17.50;56.10
45044;DHT22;30784;48.490;9.688;2022-09-09T05:35:08;17.50;56.00
45044;DHT22;30784;48.490;9.688;2022-09-09T05:37:34;17.50;56.20
45044;DHT22;30784;48.490;9.688;2022-09-09T05:40:00;17.50;56.50
45044;DHT22;30784;48.490;9.688;2022-09-09T05:42:30;17.50;56.60
45044;DHT22;30784;48.490;9.688;2022-09-09T05:44:56;17.40;56.40
45044;DHT22;30784;48.490;9.688;2022-09-09T05:47:22;17.50;56.60
45044;DHT22;30784;48.490;9.688;2022-09-09T05:49:48;17.50;56.70
45044;DHT22;30784;48.490;9.688;2022-09-09T05:52:14;17.50;56.80
45044;DHT22;30784;48.490;9.688;2022-09-09T05:54:40;17.50;56.40
45044;DHT22;30784;48.490;9.688;2022-09-09T05:57:06;17.50;57.00
45044;DHT22;30784;48.490;9.688;2022-09-09T05:59:32;17.50;57.00
45044;DHT22;30784;48.490;9.688;2022-09-09T06:01:58;17.50;57.00
45044;DHT22;30784;48.490;9.688;2022-09-09T06:04:24;17.60;57.30
45044;DHT22;30784;48.490;9.688;2022-09-09T06:06:50;17.60;57.40
45044;DHT22;30784;48.490;9.688;2022-09-09T06:09:16;17.60;57.20
45044;DHT22;30784;48.490;9.688;2022-09-09T06:11:42;17.60;57.60
45044;DHT22;30784;48.490;9.688;2022-09-09T06:14:08;17.60;57.70
45044;DHT22;30784;48.490;9.688;2022-09-09T06:16:34;17.60;57.60
45044;DHT22;30784;48.490;9.688;2022-09-09T06:19:01;17.60;58.00
45044;DHT22;30784;48.490;9.688;2022-09-09T06:21:33;17.60;58.10
45044;DHT22;30784;48.490;9.688;2022-09-09T06:23:59;17.70;58.10
45044;DHT22;30784;48.490;9.688;2022-09-09T06:26:26;17.80;58.40
45044;DHT22;30784;48.490;9.688;2022-09-09T06:28:53;17.80;58.50
45044;DHT22;30784;48.490;9.688;2022-09-09T06:31:24;17.90;58.60
45044;DHT22;30784;48.490;9.688;2022-09-09T06:33:52;18.00;59.00
45044;DHT22;30784;48.490;9.688;2022-09-09T06:36:20;18.10;59.30
45044;DHT22;30784;48.490;9.688;2022-09-09T06:38:46;18.10;58.90
45044;DHT22;30784;48.490;9.688;2022-09-09T06:41:13;18.20;59.00
45044;DHT22;30784;48.490;9.688;2022-09-09T06:43:39;18.30;58.80
45044;DHT22;30784;48.490;9.688;2022-09-09T06:46:13;18.40;58.60
45044;DHT22;30784;48.490;9.688;2022-09-09T06:48:40;18.50;58.30
45044;DHT22;30784;48.490;9.688;2022-09-09T06:51:18;18.60;58.50
45044;DHT22;30784;48.490;9.688;2022-09-09T06:53:45;18.70;58.50
45044;DHT22;30784;48.490;9.688;2022-09-09T06:58:40;19.00;58.30
45044;DHT22;30784;48.490;9.688;2022-09-09T07:01:17;19.10;58.40
45044;DHT22;30784;48.490;9.688;2022-09-09T07:03:46;19.30;58.10
45044;DHT22;30784;48.490;9.688;2022-09-09T07:06:17;19.40;58.00
45044;DHT22;30784;48.490;9.688;2022-09-09T07:08:48;19.60;57.80
45044;DHT22;30784;48.490;9.688;2022-09-09T07:11:14;19.80;57.80
45044;DHT22;30784;48.490;9.688;2022-09-09T07:13:39;20.00;58.00
45044;DHT22;30784;48.490;9.688;2022-09-09T07:16:07;20.20;57.90
45044;DHT22;30784;48.490;9.688;2022-09-09T07:18:33;20.40;57.30
45044;DHT22;30784;48.490;9.688;2022-09-09T07:21:00;20.70;56.10
45044;DHT22;30784;48.490;9.688;2022-09-09T07:23:27;20.90;55.70
45044;DHT22;30784;48.490;9.688;2022-09-09T07:25:53;21.10;55.50
45044;DHT22;30784;48.490;9.688;2022-09-09T07:28:20;21.30;54.70
45044;DHT22;30784;48.490;9.688;2022-09-09T07:31:00;21.40;54.00
45044;DHT22;30784;48.490;9.688;2022-09-09T07:33:29;21.50;54.00
45044;DHT22;30784;48.490;9.688;2022-09-09T07:36:19;21.60;53.50
45044;DHT22;30784;48.490;9.688;2022-09-09T07:38:54;21.70;53.80
45044;DHT22;30784;48.490;9.688;2022-09-09T07:44:03;21.70;53.00
45044;DHT22;30784;48.490;9.688;2022-09-09T07:46:29;21.70;53.30
45044;DHT22;30784;48.490;9.688;2022-09-09T07:48:56;21.70;52.40
45044;DHT22;30784;48.490;9.688;2022-09-09T07:51:28;21.70;52.50
45044;DHT22;30784;48.490;9.688;2022-09-09T07:53:56;21.70;52.70
45044;DHT22;30784;48.490;9.688;2022-09-09T07:56:24;21.70;52.60
45044;DHT22;30784;48.490;9.688;2022-09-09T07:58:51;21.70;53.10
45044;DHT22;30784;48.490;9.688;2022-09-09T08:01:20;21.60;52.20
45044;DHT22;30784;48.490;9.688;2022-09-09T08:03:51;21.60;51.80
45044;DHT22;30784;48.490;9.688;2022-09-09T08:06:18;21.60;51.90
45044;DHT22;30784;48.490;9.688;2022-09-09T08:08:43;21.60;52.20
45044;DHT22;30784;48.490;9.688;2022-09-09T08:11:14;21.60;52.40
45044;DHT22;30784;48.490;9.688;2022-09-09T08:13:41;21.50;52.10
45044;DHT22;30784;48.490;9.688;2022-09-09T08:16:13;21.50;51.90
45044;DHT22;30784;48.490;9.688;2022-09-09T08:18:39;21.50;52.20
45044;DHT22;30784;48.490;9.688;2022-09-09T08:23:32;21.40;52.70
45044;DHT22;30784;48.490;9.688;2022-09-09T08:26:04;21.40;52.10
45044;DHT22;30784;48.490;9.688;2022-09-09T08:28:30;21.40;52.30
45044;DHT22;30784;48.490;9.688;2022-09-09T08:31:04;21.40;52.00
45044;DHT22;30784;48.490;9.688;2022-09-09T08:33:29;21.40;52.10
45044;DHT22;30784;48.490;9.688;2022-09-09T08:35:55;21.40;52.20
45044;DHT22;30784;48.490;9.688;2022-09-09T08:38:21;21.40;52.30
45044;DHT22;30784;48.490;9.688;2022-09-09T08:40:49;21.50;52.50
45044;DHT22;30784;48.490;9.688;2022-09-09T08:43:16;21.50;52.40
45044;DHT22;30784;48.490;9.688;2022-09-09T08:46:00;21.60;52.50
45044;DHT22;30784;48.490;9.688;2022-09-09T08:50:58;21.80;51.60
45044;DHT22;30784;48.490;9.688;2022-09-09T08:53:39;21.90;51.50
45044;DHT22;30784;48.490;9.688;2022-09-09T08:56:14;22.10;51.50
45044;DHT22;30784;48.490;9.688;2022-09-09T08:58:47;22.20;51.10
45044;DHT22;30784;48.490;9.688;2022-09-09T09:01:37;22.30;51.00
45044;DHT22;30784;48.490;9.688;2022-09-09T09:12:24;22.50;49.80
45044;DHT22;30784;48.490;9.688;2022-09-09T09:14:51;22.50;49.20
45044;DHT22;30784;48.490;9.688;2022-09-09T09:17:19;22.40;48.70
45044;DHT22;30784;48.490;9.688;2022-09-09T09:19:47;22.40;48.40
45044;DHT22;30784;48.490;9.688;2022-09-09T09:22:37;22.40;48.80
45044;DHT22;30784;48.490;9.688;2022-09-09T09:25:23;22.40;49.10
45044;DHT22;30784;48.490;9.688;2022-09-09T09:28:03;22.40;49.30
45044;DHT22;30784;48.490;9.688;2022-09-09T09:30:40;22.40;48.90
45044;DHT22;30784;48.490;9.688;2022-09-09T09:35:51;22.50;48.20
45044;DHT22;30784;48.490;9.688;2022-09-09T09:40:56;22.50;47.60
45044;DHT22;30784;48.490;9.688;2022-09-09T09:43:36;22.40;47.50
45044;DHT22;30784;48.490;9.688;2022-09-09T09:46:16;22.40;47.50
45044;DHT22;30784;48.490;9.688;2022-09-09T09:48:43;22.40;47.50
45044;DHT22;30784;48.490;9.688;2022-09-09T09:51:11;22.40;47.60
45044;DHT22;30784;48.490;9.688;2022-09-09T09:53:39;22.50;47.50
45044;DHT22;30784;48.490;9.688;2022-09-09T09:56:10;22.50;47.40
45044;DHT22;30784;48.490;9.688;2022-09-09T10:01:28;22.70;48.00
45044;DHT22;30784;48.490;9.688;2022-09-09T10:04:00;22.80;47.70
45044;DHT22;30784;48.490;9.688;2022-09-09T10:06:34;22.90;47.40
45044;DHT22;30784;48.490;9.688;2022-09-09T10:09:02;23.10;47.40
45044;DHT22;30784;48.490;9.688;2022-09-09T10:16:55;23.70;45.80
45044;DHT22;30784;48.490;9.688;2022-09-09T10:19:36;24.00;45.30
45044;DHT22;30784;48.490;9.688;2022-09-09T10:27:11;24.80;43.90
45044;DHT22;30784;48.490;9.688;2022-09-09T10:32:18;25.10;43.60
45044;DHT22;30784;48.490;9.688;2022-09-09T10:38:13;25.30;41.60
45044;DHT22;30784;48.490;9.688;2022-09-09T10:46:33;25.40;41.20
45044;DHT22;30784;48.490;9.688;2022-09-09T10:49:23;25.50;40.70
45044;DHT22;30784;48.490;9.688;2022-09-09T10:55:16;25.60;40.00
45044;DHT22;30784;48.490;9.688;2022-09-09T10:57:51;25.50;39.50
45044;DHT22;30784;48.490;9.688;2022-09-09T11:00:22;25.50;38.40
45044;DHT22;30784;48.490;9.688;2022-09-09T11:02:53;25.40;39.00
45044;DHT22;30784;48.490;9.688;2022-09-09T11:05:30;25.30;39.30
45044;DHT22;30784;48.490;9.688;2022-09-09T11:08:04;25.20;39.00
45044;DHT22;30784;48.490;9.688;2022-09-09T11:11:03;25.10;39.60
45044;DHT22;30784;48.490;9.688;2022-09-09T11:18:57;25.20;39.20
45044;DHT22;30784;48.490;9.688;2022-09-09T11:21:32;25.20;38.70
45044;DHT22;30784;48.490;9.688;2022-09-09T11:24:03;25.20;37.70
45044;DHT22;30784;48.490;9.688;2022-09-09T11:26:38;25.20;36.90
45044;DHT22;30784;48.490;9.688;2022-09-09T11:40:07;24.80;36.70
45044;DHT22;30784;48.490;9.688;2022-09-09T11:42:35;24.90;36.40
45044;DHT22;30784;48.490;9.688;2022-09-09T11:45:24;25.00;35.10
45044;DHT22;30784;48.490;9.688;2022-09-09T11:47:53;25.10;34.90
45044;DHT22;30784;48.490;9.688;2022-09-09T11:52:47;25.30;33.90
45044;DHT22;30784;48.490;9.688;2022-09-09T11:55:33;25.40;34.30
45044;DHT22;30784;48.490;9.688;2022-09-09T12:00:44;25.60;33.50
45044;DHT22;30784;48.490;9.688;2022-09-09T12:03:49;25.70;33.20
45044;DHT22;30784;48.490;9.688;2022-09-09T12:06:29;25.90;33.40
45044;DHT22;30784;48.490;9.688;2022-09-09T12:09:18;26.00;32.90
45044;DHT22;30784;48.490;9.688;2022-09-09T12:11:44;26.10;33.20
45044;DHT22;30784;48.490;9.688;2022-09-09T12:17:23;26.40;32.00
45044;DHT22;30784;48.490;9.688;2022-09-09T12:20:16;26.50;32.60
45044;DHT22;30784;48.490;9.688;2022-09-09T12:29:33;26.80;31.90
45044;DHT22;30784;48.490;9.688;2022-09-09T12:32:02;27.00;31.30
45044;DHT22;30784;48.490;9.688;2022-09-09T12:37:34;27.20;30.60
45044;DHT22;30784;48.490;9.688;2022-09-09T12:40:06;27.30;30.40
45044;DHT22;30784;48.490;9.688;2022-09-09T12:42:32;27.40;30.00
45044;DHT22;30784;48.490;9.688;2022-09-09T12:45:03;27.40;29.90
45044;DHT22;30784;48.490;9.688;2022-09-09T12:47:49;27.50;29.70
45044;DHT22;30784;48.490;9.688;2022-09-09T12:50:24;27.50;29.60
45044;DHT22;30784;48.490;9.688;2022-09-09T12:53:03;27.60;29.60
45044;DHT22;30784;48.490;9.688;2022-09-09T12:55:32;27.60;30.00
45044;DHT22;30784;48.490;9.688;2022-09-09T12:58:01;27.70;29.20
45044;DHT22;30784;48.490;9.688;2022-09-09T13:00:30;27.60;29.10
45044;DHT22;30784;48.490;9.688;2022-09-09T13:02:58;27.50;29.80
45044;DHT22;30784;48.490;9.688;2022-09-09T13:05:27;27.40;30.50
45044;DHT22;30784;48.490;9.688;2022-09-09T13:08:01;27.30;30.70
45044;DHT22;30784;48.490;9.688;2022-09-09T13:10:29;27.20;30.80
45044;DHT22;30784;48.490;9.688;2022-09-09T13:12:57;27.10;31.00
45044;DHT22;30784;48.490;9.688;2022-09-09T13:15:24;27.00;31.30
45044;DHT22;30784;48.490;9.688;2022-09-09T13:17:58;26.90;31.50
45044;DHT22;30784;48.490;9.688;2022-09-09T13:20:26;26.90;31.70
45044;DHT22;30784;48.490;9.688;2022-09-09T13:22:54;26.80;31.80
45044;DHT22;30784;48.490;9.688;2022-09-09T13:25:26;26.80;32.00
45044;DHT22;30784;48.490;9.688;2022-09-09T13:28:00;26.70;31.90
45044;DHT22;30784;48.490;9.688;2022-09-09T13:30:34;26.70;32.10
45044;DHT22;30784;48.490;9.688;2022-09-09T13:35:31;26.70;32.30
45044;DHT22;30784;48.490;9.688;2022-09-09T13:37:58;26.70;32.60
45044;DHT22;30784;48.490;9.688;2022-09-09T13:40:25;26.70;32.20
45044;DHT22;30784;48.490;9.688;2022-09-09T13:42:54;26.80;32.10
45044;DHT22;30784;48.490;9.688;2022-09-09T13:45:22;26.80;32.00
45044;DHT22;30784;48.490;9.688;2022-09-09T13:47:49;26.90;32.50
45044;DHT22;30784;48.490;9.688;2022-09-09T13:50:30;27.00;31.90
45044;DHT22;30784;48.490;9.688;2022-09-09T13:52:59;27.00;31.90
45044;DHT22;30784;48.490;9.688;2022-09-09T13:55:26;27.10;32.10
45044;DHT22;30784;48.490;9.688;2022-09-09T13:58:02;27.20;32.10
45044;DHT22;30784;48.490;9.688;2022-09-09T14:00:30;27.20;31.90
45044;DHT22;30784;48.490;9.688;2022-09-09T14:02:56;27.20;31.90
45044;DHT22;30784;48.490;9.688;2022-09-09T14:05:22;27.20;31.80
45044;DHT22;30784;48.490;9.688;2022-09-09T14:07:49;27.30;31.80
45044;DHT22;30784;48.490;9.688;2022-09-09T14:10:15;27.30;31.80
45044;DHT22;30784;48.490;9.688;2022-09-09T14:12:40;27.40;31.90
45044;DHT22;30784;48.490;9.688;2022-09-09T14:15:09;27.40;31.80
45044;DHT22;30784;48.490;9.688;2022-09-09T14:17:35;27.50;31.90
45044;DHT22;30784;48.490;9.688;2022-09-09T14:20:05;27.50;31.80
45044;DHT22;30784;48.490;9.688;2022-09-09T14:22:33;27.50;31.50
45044;DHT22;30784;48.490;9.688;2022-09-09T14:24:59;27.60;31.20
45044;DHT22;30784;48.490;9.688;2022-09-09T14:27:25;27.60;31.00
45044;DHT22;30784;48.490;9.688;2022-09-09T14:29:56;27.50;31.00
45044;DHT22;30784;48.490;9.688;2022-09-09T14:32:23;27.40;31.00
45044;DHT22;30784;48.490;9.688;2022-09-09T14:34:48;27.30;31.00
45044;DHT22;30784;48.490;9.688;2022-09-09T14:37:15;27.20;31.10
45044;DHT22;30784;48.490;9.688;2022-09-09T14:39:41;27.10;31.20
45044;DHT22;30784;48.490;9.688;2022-09-09T14:42:10;26.90;31.20
45044;DHT22;30784;48.490;9.688;2022-09-09T14:44:37;26.80;31.30
45044;DHT22;30784;48.490;9.688;2022-09-09T14:47:04;26.60;31.10
45044;DHT22;30784;48.490;9.688;2022-09-09T14:49:30;26.50;31.30
45044;DHT22;30784;48.490;9.688;2022-09-09T14:51:56;26.40;31.30
45044;DHT22;30784;48.490;9.688;2022-09-09T14:54:22;26.30;31.30
45044;DHT22;30784;48.490;9.688;2022-09-09T14:56:48;26.20;31.50
45044;DHT22;30784;48.490;9.688;2022-09-09T14:59:14;26.10;31.50
45044;DHT22;30784;48.490;9.688;2022-09-09T15:01:40;26.10;31.70
45044;DHT22;30784;48.490;9.688;2022-09-09T15:04:06;26.10;31.90
45044;DHT22;30784;48.490;9.688;2022-09-09T15:06:34;26.00;31.90
45044;DHT22;30784;48.490;9.688;2022-09-09T15:09:01;26.10;31.90
45044;DHT22;30784;48.490;9.688;2022-09-09T15:11:34;26.10;32.00
45044;DHT22;30784;48.490;9.688;2022-09-09T15:14:03;26.10;31.70
45044;DHT22;30784;48.490;9.688;2022-09-09T15:16:30;26.10;31.70
45044;DHT22;30784;48.490;9.688;2022-09-09T15:18:58;26.10;31.60
45044;DHT22;30784;48.490;9.688;2022-09-09T15:21:27;26.10;31.60
45044;DHT22;30784;48.490;9.688;2022-09-09T15:23:54;26.10;31.60
45044;DHT22;30784;48.490;9.688;2022-09-09T15:26:20;26.10;31.60
45044;DHT22;30784;48.490;9.688;2022-09-09T15:28:46;26.10;31.70
45044;DHT22;30784;48.490;9.688;2022-09-09T15:33:49;26.20;31.60
45044;DHT22;30784;48.490;9.688;2022-09-09T15:36:23;26.20;31.70
45044;DHT22;30784;48.490;9.688;2022-09-09T15:38:51;26.10;31.50
45044;DHT22;30784;48.490;9.688;2022-09-09T15:41:18;26.10;31.60
45044;DHT22;30784;48.490;9.688;2022-09-09T15:43:49;26.10;31.30
45044;DHT22;30784;48.490;9.688;2022-09-09T15:49:04;26.00;31.50
45044;DHT22;30784;48.490;9.688;2022-09-09T15:51:30;25.90;31.40
45044;DHT22;30784;48.490;9.688;2022-09-09T15:53:56;25.80;31.30
45044;DHT22;30784;48.490;9.688;2022-09-09T15:56:24;25.70;31.40
45044;DHT22;30784;48.490;9.688;2022-09-09T15:58:50;25.60;31.30
45044;DHT22;30784;48.490;9.688;2022-09-09T16:01:18;25.50;31.50
45044;DHT22;30784;48.490;9.688;2022-09-09T16:03:44;25.40;32.10
45044;DHT22;30784;48.490;9.688;2022-09-09T16:06:19;25.30;31.50
45044;DHT22;30784;48.490;9.688;2022-09-09T16:08:48;25.10;31.50
45044;DHT22;30784;48.490;9.688;2022-09-09T16:11:33;25.00;31.70
45044;DHT22;30784;48.490;9.688;2022-09-09T16:14:00;24.80;31.70
45044;DHT22;30784;48.490;9.688;2022-09-09T16:16:28;24.70;32.10
45044;DHT22;30784;48.490;9.688;2022-09-09T16:18:56;24.60;32.20
45044;DHT22;30784;48.490;9.688;2022-09-09T16:21:31;24.40;32.30
45044;DHT22;30784;48.490;9.688;2022-09-09T16:23:59;24.30;32.50
45044;DHT22;30784;48.490;9.688;2022-09-09T16:26:25;24.20;32.60
45044;DHT22;30784;48.490;9.688;2022-09-09T16:28:51;24.00;33.30
45044;DHT22;30784;48.490;9.688;2022-09-09T16:31:20;23.90;32.90
45044;DHT22;30784;48.490;9.688;2022-09-09T16:33:46;23.80;33.10
45044;DHT22;30784;48.490;9.688;2022-09-09T16:36:14;23.60;33.10
45044;DHT22;30784;48.490;9.688;2022-09-09T16:38:41;23.50;33.30
45044;DHT22;30784;48.490;9.688;2022-09-09T16:41:10;23.50;33.60
45044;DHT22;30784;48.490;9.688;2022-09-09T16:43:37;23.40;33.70
45044;DHT22;30784;48.490;9.688;2022-09-09T16:46:08;23.30;33.90
45044;DHT22;30784;48.490;9.688;2022-09-09T16:48:36;23.20;33.40
45044;DHT22;30784;48.490;9.688;2022-09-09T16:51:13;23.10;33.40
45044;DHT22;30784;48.490;9.688;2022-09-09T16:53:40;23.00;33.30
45044;DHT22;30784;48.490;9.688;2022-09-09T16:56:09;22.90;33.60
45044;DHT22;30784;48.490;9.688;2022-09-09T16:58:35;22.90;33.60
45044;DHT22;30784;48.490;9.688;2022-09-09T17:01:03;22.70;33.50
45044;DHT22;30784;48.490;9.688;2022-09-09T17:03:30;22.70;33.50
45044;DHT22;30784;48.490;9.688;2022-09-09T17:05:56;22.60;33.50
45044;DHT22;30784;48.490;9.688;2022-09-09T17:08:26;22.50;33.60
45044;DHT22;30784;48.490;9.688;2022-09-09T17:10:51;22.40;33.80
45044;DHT22;30784;48.490;9.688;2022-09-09T17:13:17;22.30;34.50
45044;DHT22;30784;48.490;9.688;2022-09-09T17:15:45;22.20;34.00
45044;DHT22;30784;48.490;9.688;2022-09-09T17:18:12;22.10;34.00
45044;DHT22;30784;48.490;9.688;2022-09-09T17:20:39;22.00;34.10
45044;DHT22;30784;48.490;9.688;2022-09-09T17:23:06;22.00;34.40
45044;DHT22;30784;48.490;9.688;2022-09-09T17:25:31;21.90;34.50
45044;DHT22;30784;48.490;9.688;2022-09-09T17:27:58;21.80;34.50
45044;DHT22;30784;48.490;9.688;2022-09-09T17:30:25;21.70;34.90
45044;DHT22;30784;48.490;9.688;2022-09-09T17:32:51;21.60;35.10
45044;DHT22;30784;48.490;9.688;2022-09-09T17:35:17;21.60;35.10
45044;DHT22;30784;48.490;9.688;2022-09-09T17:37:43;21.50;35.20
45044;DHT22;30784;48.490;9.688;2022-09-09T17:40:09;21.40;35.40
45044;DHT22;30784;48.490;9.688;2022-09-09T17:42:35;21.30;35.60
45044;DHT22;30784;48.490;9.688;2022-09-09T17:45:01;21.30;35.90
45044;DHT22;30784;48.490;9.688;2022-09-09T17:47:27;21.20;36.00
45044;DHT22;30784;48.490;9.688;2022-09-09T17:49:53;21.20;36.30
45044;DHT22;30784;48.490;9.688;2022-09-09T17:52:19;21.10;36.60
45044;DHT22;30784;48.490;9.688;2022-09-09T17:54:45;21.00;36.60
45044;DHT22;30784;48.490;9.688;2022-09-09T17:57:10;21.00;36.90
45044;DHT22;30784;48.490;9.688;2022-09-09T17:59:36;20.90;37.30
45044;DHT22;30784;48.490;9.688;2022-09-09T18:02:02;20.90;37.50
45044;DHT22;30784;48.490;9.688;2022-09-09T18:04:29;20.80;37.50